createdAt,value
2022-11-05T00:00:12.407Z,98.22
2022-11-05T00:01:12.429Z,97.75
2022-11-05T00:03:16.544Z,97.85
2022-11-05T00:04:16.511Z,97.94
2022-11-05T00:06:20.576Z,98.32
2022-11-05T00:07:20.573Z,98.42
2022-11-05T00:09:13.615Z,98.61
2022-11-05T00:10:13.638Z,98.03
2022-11-05T00:12:17.701Z,98.22
2022-11-05T00:13:17.728Z,97.75
2022-11-05T00:15:10.718Z,97.94
2022-11-05T00:16:10.710Z,98.32
2022-11-05T00:18:14.749Z,98.61
2022-11-05T00:19:14.770Z,98.80
2022-11-05T00:21:18.836Z,98.70
2022-11-05T00:22:18.829Z,98.70
2022-11-05T00:24:11.876Z,98.70
2022-11-05T00:25:11.866Z,98.99
2022-11-05T00:27:04.827Z,98.70
2022-11-05T00:28:04.851Z,98.80
2022-11-05T00:29:57.864Z,98.61
2022-11-05T00:30:57.890Z,98.99
2022-11-05T00:31:57.921Z,98.80
2022-11-05T00:32:57.962Z,98.42
2022-11-05T00:33:57.986Z,98.03
2022-11-05T00:34:58.026Z,98.22
2022-11-05T00:35:58.050Z,98.32
2022-11-05T00:36:58.084Z,98.32
2022-11-05T00:37:58.113Z,98.32
2022-11-05T00:38:58.146Z,98.13
2022-11-05T00:39:58.175Z,98.03
2022-11-05T00:40:58.211Z,98.80
2022-11-05T00:41:58.243Z,98.22
2022-11-05T00:42:58.273Z,98.13
2022-11-05T00:43:58.307Z,98.13
2022-11-05T00:44:58.340Z,98.13
2022-11-05T00:45:58.369Z,98.13
2022-11-05T00:46:59.952Z,98.03
2022-11-05T00:47:58.450Z,98.13
2022-11-05T00:48:58.473Z,98.32
2022-11-05T00:49:58.499Z,98.03
2022-11-05T00:50:58.529Z,98.32
2022-11-05T00:51:58.559Z,98.32
2022-11-05T00:52:58.593Z,98.22
2022-11-05T00:53:58.623Z,98.13
2022-11-05T00:54:58.656Z,98.32
2022-11-05T00:55:58.686Z,98.32
2022-11-05T00:57:04.340Z,98.42
2022-11-05T00:57:58.760Z,98.22
2022-11-05T00:58:58.783Z,98.32
2022-11-05T00:59:58.819Z,98.13
2022-11-05T01:00:58.845Z,98.13
2022-11-05T01:01:59.074Z,98.80
2022-11-05T01:02:58.912Z,98.61
2022-11-05T01:03:58.941Z,98.80
2022-11-05T01:04:58.975Z,98.03
2022-11-05T01:05:59.005Z,97.94
2022-11-05T01:06:59.038Z,97.94
2022-11-05T01:07:59.069Z,98.80
2022-11-05T01:08:59.107Z,98.80
2022-11-05T01:09:59.143Z,98.80
2022-11-05T01:10:59.167Z,98.61
2022-11-05T01:11:59.196Z,98.13
2022-11-05T01:12:59.228Z,98.03
2022-11-05T01:13:59.260Z,98.13
2022-11-05T01:14:59.295Z,98.99
2022-11-05T01:15:59.324Z,98.90
2022-11-05T01:16:59.356Z,99.85
2022-11-05T01:17:59.387Z,99.37
2022-11-05T01:18:59.424Z,98.70
2022-11-05T01:19:59.454Z,98.90
2022-11-05T01:20:59.484Z,98.70
2022-11-05T01:21:59.515Z,98.61
2022-11-05T01:22:59.551Z,98.51
2022-11-05T01:23:59.579Z,98.80
2022-11-05T01:24:59.695Z,99.08
2022-11-05T01:25:59.643Z,98.80
2022-11-05T01:26:59.682Z,98.51
2022-11-05T01:27:59.707Z,98.70
2022-11-05T01:28:59.815Z,98.80
2022-11-05T01:29:59.772Z,98.70
2022-11-05T01:30:59.803Z,98.51
2022-11-05T01:31:59.837Z,98.22
2022-11-05T01:32:59.869Z,98.32
2022-11-05T01:33:59.898Z,98.32
2022-11-05T01:34:59.931Z,98.03
2022-11-05T01:35:59.962Z,98.22
2022-11-05T01:36:59.996Z,97.94
2022-11-05T01:38:00.033Z,98.32
2022-11-05T01:39:00.059Z,97.94
2022-11-05T01:40:00.117Z,98.32
2022-11-05T01:41:00.267Z,98.32
2022-11-05T01:42:00.153Z,98.32
2022-11-05T01:43:00.187Z,98.42
2022-11-05T01:44:00.223Z,98.32
2022-11-05T01:45:00.256Z,98.51
2022-11-05T01:46:00.280Z,98.32
2022-11-05T01:47:00.312Z,98.32
2022-11-05T01:48:00.349Z,98.51
2022-11-05T01:49:03.349Z,98.22
2022-11-05T01:50:00.409Z,98.42
2022-11-05T01:51:00.442Z,98.13
2022-11-05T01:52:00.481Z,98.03
2022-11-05T01:53:00.505Z,98.22
2022-11-05T01:54:00.537Z,98.03
2022-11-05T01:55:00.570Z,97.94
2022-11-05T01:56:00.621Z,98.13
2022-11-05T01:57:00.653Z,98.51
2022-11-05T01:58:00.664Z,98.51
2022-11-05T01:59:00.696Z,98.22
2022-11-05T02:00:00.726Z,98.80
2022-11-05T02:01:00.759Z,97.94
2022-11-05T02:02:00.967Z,98.80
2022-11-05T02:03:00.842Z,98.61
2022-11-05T02:04:00.854Z,98.22
2022-11-05T02:05:00.887Z,98.22
2022-11-05T02:06:00.920Z,98.03
2022-11-05T02:07:00.949Z,98.22
2022-11-05T02:08:00.981Z,97.94
2022-11-05T02:09:01.016Z,98.51
2022-11-05T02:10:01.050Z,98.51
2022-11-05T02:11:01.077Z,97.94
2022-11-05T02:12:01.109Z,98.13
2022-11-05T02:13:01.145Z,98.13
2022-11-05T02:14:01.174Z,98.22
2022-11-05T02:15:01.203Z,98.03
2022-11-05T02:16:01.234Z,98.22
2022-11-05T02:17:01.268Z,98.22
2022-11-05T02:18:01.308Z,98.32
2022-11-05T02:19:01.334Z,98.22
2022-11-05T02:20:01.371Z,98.22
2022-11-05T02:21:01.398Z,98.32
2022-11-05T02:22:01.428Z,98.32
2022-11-05T02:23:01.457Z,97.94
2022-11-05T02:24:01.494Z,98.32
2022-11-05T02:25:01.520Z,98.22
2022-11-05T02:26:01.555Z,97.94
2022-11-05T02:27:01.584Z,97.94
2022-11-05T02:28:01.619Z,98.13
2022-11-05T02:29:01.647Z,98.61
2022-11-05T02:30:01.686Z,98.22
2022-11-05T02:31:01.710Z,98.32
2022-11-05T02:32:01.745Z,97.94
2022-11-05T02:33:01.774Z,97.94
2022-11-05T02:34:01.809Z,97.94
2022-11-05T02:35:01.852Z,97.94
2022-11-05T02:36:01.874Z,97.75
2022-11-05T02:37:01.906Z,98.13
2022-11-05T02:38:01.933Z,98.32
2022-11-05T02:39:01.966Z,98.32
2022-11-05T02:40:01.999Z,98.22
2022-11-05T02:42:44.838Z,98.22
2022-11-05T02:43:44.815Z,98.51
2022-11-05T02:45:48.897Z,98.51
2022-11-05T02:46:48.883Z,98.51
2022-11-05T02:48:52.965Z,98.18
2022-11-05T02:49:52.958Z,98.03
2022-11-05T02:51:57.007Z,97.89
2022-11-05T02:52:57.030Z,97.85
2022-11-05T02:55:01.121Z,98.32
2022-11-05T02:56:01.106Z,98.03
2022-11-05T02:58:05.162Z,98.22
2022-11-05T02:59:05.178Z,98.22
2022-11-05T03:01:09.229Z,98.13
2022-11-05T03:02:09.357Z,97.89
2022-11-05T03:04:13.299Z,97.22
2022-11-05T03:05:13.324Z,97.32
2022-11-05T03:07:06.291Z,97.41
2022-11-05T03:08:06.315Z,97.51
2022-11-05T03:10:10.363Z,97.51
2022-11-05T03:11:10.389Z,97.51
2022-11-05T03:13:14.439Z,97.22
2022-11-05T03:14:14.474Z,97.61
2022-11-05T03:16:18.515Z,97.51
2022-11-05T03:17:18.538Z,97.51
2022-11-05T03:19:22.585Z,97.61
2022-11-05T03:20:22.613Z,97.61
2022-11-05T03:22:26.658Z,98.27
2022-11-05T03:23:26.684Z,98.08
2022-11-05T03:25:30.731Z,98.08
2022-11-05T03:26:30.757Z,97.80
2022-11-05T03:28:34.803Z,98.08
2022-11-05T03:29:34.832Z,98.08
2022-11-05T03:31:38.881Z,98.08
2022-11-05T03:32:38.903Z,98.08
2022-11-05T03:34:42.952Z,97.89
2022-11-05T03:35:42.987Z,97.89
2022-11-05T03:37:47.037Z,97.80
2022-11-05T03:38:47.050Z,98.18
2022-11-05T03:40:51.132Z,98.18
2022-11-05T03:41:51.122Z,98.18
2022-11-05T03:43:55.166Z,98.18
2022-11-05T03:44:55.193Z,97.80
2022-11-05T03:46:48.162Z,97.80
2022-11-05T03:47:48.184Z,97.89
2022-11-05T03:49:52.231Z,97.89
2022-11-05T03:50:52.262Z,98.46
2022-11-05T03:52:56.338Z,98.36
2022-11-05T03:53:56.331Z,98.08
2022-11-05T03:56:00.408Z,98.27
2022-11-05T03:57:00.398Z,97.84
2022-11-05T03:59:04.493Z,98.08
2022-11-05T04:00:04.540Z,98.08
2022-11-05T04:02:08.735Z,97.94
2022-11-05T04:03:08.831Z,98.13
2022-11-05T04:05:12.631Z,97.84
2022-11-05T04:06:14.009Z,98.65
2022-11-05T04:08:16.679Z,97.89
2022-11-05T04:09:16.695Z,97.84
2022-11-05T04:11:20.746Z,98.41
2022-11-05T04:12:20.771Z,97.65
2022-11-05T04:14:24.819Z,97.75
2022-11-05T04:15:24.844Z,98.13
2022-11-05T04:17:28.894Z,97.94
2022-11-05T04:18:28.925Z,97.75
2022-11-05T04:20:32.964Z,98.13
2022-11-05T04:21:32.991Z,97.94
2022-11-05T04:23:37.038Z,98.60
2022-11-05T04:24:37.061Z,97.94
2022-11-05T04:26:30.035Z,98.13
2022-11-05T04:27:30.059Z,98.60
2022-11-05T04:29:34.111Z,97.84
2022-11-05T04:30:34.136Z,98.03
2022-11-05T04:31:34.168Z,97.94
2022-11-05T04:32:34.286Z,98.13
2022-11-05T04:33:34.233Z,98.41
2022-11-05T04:34:34.259Z,98.22
2022-11-05T04:35:34.290Z,98.13
2022-11-05T04:36:34.322Z,98.41
2022-11-05T04:37:34.351Z,98.03
2022-11-05T04:38:34.382Z,98.32
2022-11-05T04:39:34.418Z,98.51
2022-11-05T04:40:34.450Z,97.84
2022-11-05T04:41:34.476Z,97.84
2022-11-05T04:42:34.508Z,98.51
2022-11-05T04:43:34.539Z,98.22
2022-11-05T04:44:34.570Z,98.32
2022-11-05T04:45:34.602Z,98.13
2022-11-05T04:46:34.632Z,98.32
2022-11-05T04:47:34.664Z,98.22
2022-11-05T04:48:34.698Z,98.32
2022-11-05T04:49:34.728Z,97.84
2022-11-05T04:50:34.757Z,98.03
2022-11-05T04:51:34.789Z,97.84
2022-11-05T04:52:34.820Z,97.84
2022-11-05T04:53:34.850Z,97.94
2022-11-05T04:54:34.883Z,97.36
2022-11-05T04:55:34.912Z,97.65
2022-11-05T04:56:34.946Z,97.56
2022-11-05T04:57:34.976Z,97.75
2022-11-05T04:58:35.010Z,97.36
2022-11-05T04:59:35.046Z,97.46
2022-11-05T05:00:35.102Z,97.56
2022-11-05T05:01:35.186Z,97.08
2022-11-05T05:02:35.133Z,98.03
2022-11-05T05:03:35.160Z,97.75
2022-11-05T05:04:35.195Z,98.13
2022-11-05T05:05:35.222Z,98.03
2022-11-05T05:06:35.257Z,97.75
2022-11-05T05:07:35.286Z,97.27
2022-11-05T05:08:35.317Z,97.75
2022-11-05T05:09:35.347Z,97.56
2022-11-05T05:10:35.387Z,97.46
2022-11-05T05:11:35.412Z,97.56
2022-11-05T05:12:35.443Z,97.56
2022-11-05T05:13:35.471Z,97.27
2022-11-05T05:14:35.503Z,97.75
2022-11-05T05:15:35.533Z,98.13
2022-11-05T05:16:35.566Z,97.84
2022-11-05T05:17:35.599Z,97.94
2022-11-05T05:18:35.628Z,97.84
2022-11-05T05:19:35.659Z,97.94
2022-11-05T05:20:35.691Z,97.84
2022-11-05T05:21:35.719Z,97.84
2022-11-05T05:22:35.751Z,98.03
2022-11-05T05:23:35.784Z,97.65
2022-11-05T05:24:35.814Z,97.84
2022-11-05T05:25:35.842Z,97.17
2022-11-05T05:26:35.876Z,98.13
2022-11-05T05:27:35.906Z,98.13
2022-11-05T05:28:35.938Z,97.84
2022-11-05T05:29:35.970Z,97.75
2022-11-05T05:30:35.999Z,98.03
2022-11-05T05:31:36.030Z,97.84
2022-11-05T05:32:36.061Z,97.84
2022-11-05T05:33:36.093Z,97.75
2022-11-05T05:34:36.122Z,97.84
2022-11-05T05:35:36.158Z,97.08
2022-11-05T05:36:36.226Z,97.46
2022-11-05T05:37:36.217Z,97.60
2022-11-05T05:38:36.271Z,97.51
2022-11-05T05:39:36.280Z,97.60
2022-11-05T05:40:36.310Z,97.17
2022-11-05T05:41:36.343Z,97.41
2022-11-05T05:42:41.807Z,97.51
2022-11-05T05:43:36.414Z,97.60
2022-11-05T05:44:36.434Z,97.70
2022-11-05T05:45:36.467Z,97.60
2022-11-05T05:46:36.492Z,97.60
2022-11-05T05:47:36.527Z,97.31
2022-11-05T05:48:36.593Z,97.13
2022-11-05T05:49:36.589Z,97.31
2022-11-05T05:50:36.617Z,97.13
2022-11-05T05:51:36.649Z,97.22
2022-11-05T05:52:36.684Z,96.84
2022-11-05T05:53:36.715Z,97.13
2022-11-05T05:54:42.319Z,97.13
2022-11-05T05:55:36.774Z,97.03
2022-11-05T05:56:36.804Z,97.60
2022-11-05T05:57:36.835Z,97.31
2022-11-05T05:58:36.863Z,97.31
2022-11-05T05:59:36.898Z,97.13
2022-11-05T06:00:36.926Z,97.13
2022-11-05T06:01:37.120Z,97.03
2022-11-05T06:02:37.036Z,97.13
2022-11-05T06:03:37.020Z,97.13
2022-11-05T06:04:37.048Z,97.13
2022-11-05T06:05:37.083Z,97.03
2022-11-05T06:06:37.138Z,97.70
2022-11-05T06:07:37.660Z,97.22
2022-11-05T06:08:37.173Z,97.51
2022-11-05T06:09:37.205Z,97.22
2022-11-05T06:10:37.315Z,97.41
2022-11-05T06:11:37.279Z,97.70
2022-11-05T06:12:37.295Z,97.89
2022-11-05T06:13:37.335Z,97.60
2022-11-05T06:14:37.361Z,97.51
2022-11-05T06:15:37.390Z,97.51
2022-11-05T06:16:37.418Z,97.60
2022-11-05T06:17:37.451Z,97.41
2022-11-05T06:18:37.489Z,97.60
2022-11-05T06:19:37.516Z,97.89
2022-11-05T06:20:37.541Z,97.60
2022-11-05T06:21:37.576Z,97.51
2022-11-05T06:22:37.606Z,97.51
2022-11-05T06:23:37.636Z,97.22
2022-11-05T06:24:37.667Z,97.99
2022-11-05T06:25:41.235Z,97.79
2022-11-05T06:26:37.732Z,97.79
2022-11-05T06:27:37.763Z,98.08
2022-11-05T06:28:37.788Z,98.46
2022-11-05T06:29:37.820Z,97.89
2022-11-05T06:30:37.854Z,97.89
2022-11-05T06:31:37.881Z,97.70
2022-11-05T06:32:37.913Z,97.99
2022-11-05T06:33:37.941Z,98.18
2022-11-05T06:34:37.982Z,98.55
2022-11-05T06:35:38.004Z,98.46
2022-11-05T06:36:38.032Z,97.79
2022-11-05T06:37:38.089Z,97.99
2022-11-05T06:38:38.112Z,98.08
2022-11-05T06:39:38.128Z,97.99
2022-11-05T06:40:38.155Z,98.08
2022-11-05T06:42:03.867Z,97.31
2022-11-05T06:42:38.216Z,97.31
2022-11-05T06:43:38.247Z,97.60
2022-11-05T06:44:38.277Z,97.22
2022-11-05T06:45:38.309Z,97.41
2022-11-05T06:46:38.339Z,97.70
2022-11-05T06:47:38.370Z,97.70
2022-11-05T06:48:38.400Z,97.41
2022-11-05T06:49:38.435Z,97.31
2022-11-05T06:50:38.465Z,97.51
2022-11-05T06:51:38.494Z,97.41
2022-11-05T06:52:41.233Z,97.41
2022-11-05T06:53:38.556Z,97.60
2022-11-05T06:54:38.586Z,97.60
2022-11-05T06:55:38.616Z,97.99
2022-11-05T06:56:38.648Z,97.41
2022-11-05T06:57:38.677Z,97.55
2022-11-05T06:58:38.708Z,97.60
2022-11-05T06:59:38.740Z,97.51
2022-11-05T07:00:38.813Z,97.22
2022-11-05T07:01:38.938Z,97.22
2022-11-05T07:02:38.832Z,97.51
2022-11-05T07:03:38.872Z,97.41
2022-11-05T07:04:38.894Z,97.31
2022-11-05T07:05:38.921Z,97.31
2022-11-05T07:06:38.951Z,98.08
2022-11-05T07:07:38.984Z,97.89
2022-11-05T07:08:39.014Z,98.55
2022-11-05T07:09:39.045Z,98.55
2022-11-05T07:10:39.075Z,98.36
2022-11-05T07:11:39.108Z,97.79
2022-11-05T07:12:39.139Z,97.79
2022-11-05T07:13:39.167Z,97.89
2022-11-05T07:14:39.197Z,97.70
2022-11-05T07:15:39.231Z,97.79
2022-11-05T07:16:39.260Z,97.79
2022-11-05T07:17:39.297Z,98.08
2022-11-05T07:18:39.320Z,97.99
2022-11-05T07:19:39.354Z,97.13
2022-11-05T07:20:39.382Z,98.08
2022-11-05T07:21:39.416Z,97.89
2022-11-05T07:22:39.445Z,97.89
2022-11-05T07:23:39.476Z,97.79
2022-11-05T07:24:39.506Z,98.08
2022-11-05T07:25:39.545Z,98.08
2022-11-05T07:26:39.572Z,98.08
2022-11-05T07:27:39.600Z,97.89
2022-11-05T07:28:39.639Z,97.70
2022-11-05T07:29:39.658Z,97.22
2022-11-05T07:30:39.690Z,97.51
2022-11-05T07:31:39.721Z,97.51
2022-11-05T07:32:39.754Z,97.31
2022-11-05T07:33:39.783Z,97.13
2022-11-05T07:34:39.811Z,97.51
2022-11-05T07:35:39.843Z,97.89
2022-11-05T07:36:39.874Z,97.13
2022-11-05T07:37:39.902Z,97.31
2022-11-05T07:38:39.933Z,97.13
2022-11-05T07:39:39.964Z,97.22
2022-11-05T07:40:39.996Z,97.51
2022-11-05T07:41:40.024Z,97.60
2022-11-05T07:42:40.055Z,97.51
2022-11-05T07:43:40.087Z,97.60
2022-11-05T07:44:40.210Z,97.51
2022-11-05T07:45:40.149Z,97.79
2022-11-05T07:46:40.177Z,97.70
2022-11-05T07:47:40.210Z,97.22
2022-11-05T07:48:40.245Z,97.22
2022-11-05T07:49:40.271Z,97.99
2022-11-05T07:50:40.300Z,97.60
2022-11-05T07:51:40.331Z,97.22
2022-11-05T07:52:40.362Z,97.70
2022-11-05T07:53:45.116Z,97.13
2022-11-05T07:54:40.421Z,97.99
2022-11-05T07:55:40.465Z,98.08
2022-11-05T07:56:40.483Z,97.79
2022-11-05T07:57:40.515Z,97.31
2022-11-05T07:58:40.546Z,97.51
2022-11-05T07:59:40.580Z,97.70
2022-11-05T08:00:40.738Z,97.60
2022-11-05T08:01:40.880Z,97.60
2022-11-05T08:02:40.861Z,97.79
2022-11-05T08:03:40.817Z,97.51
2022-11-05T08:04:40.729Z,97.51
2022-11-05T08:05:40.762Z,97.41
2022-11-05T08:06:40.790Z,97.31
2022-11-05T08:07:40.821Z,97.03
2022-11-05T08:08:40.853Z,97.03
2022-11-05T08:09:40.885Z,97.13
2022-11-05T08:10:40.915Z,97.13
2022-11-05T08:11:40.944Z,97.03
2022-11-05T08:12:40.973Z,96.75
2022-11-05T08:13:41.006Z,96.84
2022-11-05T08:14:41.036Z,96.75
2022-11-05T08:15:41.080Z,96.75
2022-11-05T08:16:41.185Z,96.46
2022-11-05T08:17:41.128Z,97.22
2022-11-05T08:18:41.161Z,96.65
2022-11-05T08:19:41.190Z,96.94
2022-11-05T08:20:41.220Z,96.84
2022-11-05T08:21:41.254Z,97.03
2022-11-05T08:22:41.285Z,96.94
2022-11-05T08:23:41.313Z,97.41
2022-11-05T08:24:41.343Z,97.51
2022-11-05T08:25:41.375Z,96.94
2022-11-05T08:26:41.404Z,97.03
2022-11-05T08:27:41.437Z,97.13
2022-11-05T08:28:42.036Z,97.03
2022-11-05T08:29:41.500Z,96.65
2022-11-05T08:30:41.527Z,96.75
2022-11-05T08:31:41.561Z,96.84
2022-11-05T08:32:41.590Z,96.46
2022-11-05T08:33:41.627Z,96.60
2022-11-05T08:34:41.649Z,96.60
2022-11-05T08:35:41.684Z,97.08
2022-11-05T08:36:41.733Z,96.70
2022-11-05T08:37:41.742Z,96.70
2022-11-05T08:38:41.774Z,96.60
2022-11-05T08:39:41.808Z,96.12
2022-11-05T08:40:41.840Z,96.03
2022-11-05T08:41:41.867Z,96.22
2022-11-05T08:42:41.896Z,96.32
2022-11-05T08:43:41.929Z,96.03
2022-11-05T08:44:41.959Z,96.32
2022-11-05T08:45:41.990Z,95.84
2022-11-05T08:46:42.048Z,95.56
2022-11-05T08:47:42.054Z,95.70
2022-11-05T08:48:42.086Z,95.61
2022-11-05T08:49:42.116Z,95.79
2022-11-05T08:50:42.143Z,95.12
2022-11-05T08:51:42.176Z,94.74
2022-11-05T08:52:42.206Z,95.41
2022-11-05T08:53:42.238Z,95.12
2022-11-05T08:54:42.322Z,95.03
2022-11-05T08:55:42.300Z,95.17
2022-11-05T08:56:42.333Z,94.22
2022-11-05T08:57:42.364Z,93.36
2022-11-05T08:58:42.392Z,92.98
2022-11-05T08:59:42.425Z,92.79
2022-11-05T09:00:42.551Z,92.98
2022-11-05T09:01:42.583Z,95.27
2022-11-05T09:02:42.589Z,94.51
2022-11-05T09:03:42.552Z,94.79
2022-11-05T09:04:42.678Z,94.12
2022-11-05T09:05:42.613Z,93.51
2022-11-05T09:06:42.644Z,92.55
2022-11-05T09:07:42.677Z,92.46
2022-11-05T09:08:42.707Z,92.26
2022-11-05T09:09:42.737Z,91.50
2022-11-05T09:10:42.787Z,91.69
2022-11-05T09:12:10.548Z,91.31
2022-11-05T09:12:42.833Z,90.40
2022-11-05T09:13:42.867Z,90.69
2022-11-05T09:14:42.900Z,90.59
2022-11-05T09:15:42.928Z,90.40
2022-11-05T09:16:42.961Z,89.73
2022-11-05T09:17:42.992Z,89.45
2022-11-05T09:18:43.026Z,89.01
2022-11-05T09:19:43.056Z,88.54
2022-11-05T09:20:43.109Z,88.54
2022-11-05T09:21:43.121Z,86.82
2022-11-05T09:22:43.658Z,86.05
2022-11-05T09:23:43.197Z,86.82
2022-11-05T09:24:43.216Z,87.29
2022-11-05T09:25:43.249Z,87.15
2022-11-05T09:26:43.282Z,86.86
2022-11-05T09:27:43.316Z,85.90
2022-11-05T09:28:43.346Z,85.52
2022-11-05T09:29:43.380Z,86.29
2022-11-05T09:30:43.412Z,86.23
2022-11-05T09:31:43.454Z,85.09
2022-11-05T09:32:43.477Z,84.42
2022-11-05T09:33:43.513Z,83.08
2022-11-05T09:34:43.542Z,83.75
2022-11-05T09:35:43.580Z,83.75
2022-11-05T09:36:44.435Z,83.79
2022-11-05T09:37:43.645Z,83.50
2022-11-05T09:38:43.678Z,82.68
2022-11-05T09:39:43.707Z,81.20
2022-11-05T09:40:43.751Z,79.70
2022-11-05T09:41:43.776Z,75.95
2022-11-05T09:42:43.808Z,71.16
2022-11-05T09:43:43.839Z,67.58
2022-11-05T09:44:43.870Z,66.55
2022-11-05T09:45:43.903Z,64.89
2022-11-05T09:46:43.938Z,59.17
2022-11-05T09:47:43.978Z,59.20
2022-11-05T09:48:44.004Z,57.46
2022-11-05T09:49:44.039Z,56.79
2022-11-05T09:50:44.071Z,56.91
2022-11-05T09:51:44.104Z,55.66
2022-11-05T09:52:44.139Z,55.56
2022-11-05T09:53:44.270Z,55.18
2022-11-05T09:54:44.205Z,56.04
2022-11-05T09:55:44.237Z,55.82
2022-11-05T09:56:44.271Z,56.01
2022-11-05T09:57:44.304Z,56.88
2022-11-05T09:58:44.339Z,56.79
2022-11-05T09:59:44.371Z,55.82
2022-11-05T10:00:44.425Z,54.96
2022-11-05T10:01:44.616Z,54.96
2022-11-05T10:02:44.474Z,55.63
2022-11-05T10:03:44.506Z,56.01
2022-11-05T10:04:44.540Z,55.54
2022-11-05T10:05:44.655Z,56.11
2022-11-05T10:06:44.607Z,56.30
2022-11-05T10:07:44.640Z,54.21
2022-11-05T10:08:44.679Z,53.73
2022-11-05T10:09:44.708Z,54.02
2022-11-05T10:10:44.747Z,53.95
2022-11-05T10:11:44.781Z,53.75
2022-11-05T10:12:44.820Z,53.47
2022-11-05T10:13:44.852Z,53.27
2022-11-05T10:14:44.889Z,54.33
2022-11-05T10:15:44.927Z,54.11
2022-11-05T10:16:44.961Z,54.21
2022-11-05T10:17:44.997Z,54.76
2022-11-05T10:18:45.038Z,55.05
2022-11-05T10:19:45.076Z,54.31
2022-11-05T10:20:45.110Z,53.83
2022-11-05T10:22:05.563Z,53.08
2022-11-05T10:22:49.360Z,51.15
2022-11-05T10:23:45.225Z,51.17
2022-11-05T10:24:45.286Z,49.85
2022-11-05T10:25:45.303Z,49.87
2022-11-05T10:26:45.350Z,49.29
2022-11-05T10:27:45.384Z,49.68
2022-11-05T10:28:45.421Z,49.90
2022-11-05T10:29:45.459Z,49.49
2022-11-05T10:30:45.503Z,49.27
2022-11-05T10:31:45.546Z,49.34
2022-11-05T10:32:45.580Z,50.96
2022-11-05T10:33:45.624Z,52.31
2022-11-05T10:34:45.665Z,53.44
2022-11-05T10:35:45.700Z,53.25
2022-11-05T10:36:45.740Z,53.31
2022-11-05T10:37:45.781Z,53.89
2022-11-05T10:38:45.823Z,53.67
2022-11-05T10:39:45.860Z,52.01
2022-11-05T10:40:46.002Z,54.22
2022-11-05T10:41:45.941Z,55.00
2022-11-05T10:42:45.986Z,55.67
2022-11-05T10:43:46.025Z,55.35
2022-11-05T10:44:46.064Z,54.97
2022-11-05T10:45:46.103Z,54.97
2022-11-05T10:46:46.144Z,56.70
2022-11-05T10:47:46.186Z,57.45
2022-11-05T10:48:46.226Z,55.83
2022-11-05T10:49:46.267Z,56.38
2022-11-05T10:50:46.308Z,57.47
2022-11-05T10:51:46.348Z,57.06
2022-11-05T10:52:46.389Z,57.06
2022-11-05T10:53:46.429Z,56.58
2022-11-05T10:54:46.470Z,56.96
2022-11-05T10:55:46.509Z,57.28
2022-11-05T10:56:46.554Z,55.93
2022-11-05T10:57:46.591Z,56.03
2022-11-05T10:58:46.638Z,56.15
2022-11-05T10:59:46.673Z,55.00
2022-11-05T11:00:46.793Z,54.16
2022-11-05T11:01:46.896Z,53.89
2022-11-05T11:02:46.795Z,53.66
2022-11-05T11:03:46.836Z,53.11
2022-11-05T11:04:46.879Z,51.06
2022-11-05T11:05:46.917Z,48.47
2022-11-05T11:06:46.961Z,46.77
2022-11-05T11:07:47.003Z,45.73
2022-11-05T11:08:47.039Z,43.82
2022-11-05T11:09:47.080Z,42.67
2022-11-05T11:10:47.122Z,42.21
2022-11-05T11:11:47.159Z,41.63
2022-11-05T11:12:47.201Z,40.77
2022-11-05T11:13:47.239Z,39.49
2022-11-05T11:14:47.280Z,40.95
2022-11-05T11:15:47.320Z,41.31
2022-11-05T11:16:47.364Z,41.00
2022-11-05T11:17:47.397Z,42.05
2022-11-05T11:18:47.438Z,41.95
2022-11-05T11:19:47.478Z,43.38
2022-11-05T11:20:47.516Z,43.73
2022-11-05T11:21:47.607Z,43.92
2022-11-05T11:22:47.597Z,45.25
2022-11-05T11:23:47.635Z,46.51
2022-11-05T11:24:47.674Z,46.97
2022-11-05T11:25:54.935Z,46.47
2022-11-05T11:27:51.786Z,47.60
2022-11-05T11:28:51.817Z,48.74
2022-11-05T11:30:55.882Z,50.09
2022-11-05T11:31:55.917Z,50.09
2022-11-05T11:33:59.974Z,49.29
2022-11-05T11:35:00.008Z,48.81
2022-11-05T11:36:53.037Z,50.16
2022-11-05T11:37:53.031Z,50.04
2022-11-05T11:39:46.203Z,49.37
2022-11-05T11:40:46.235Z,50.04
2022-11-05T11:42:39.434Z,51.39
2022-11-05T11:43:39.563Z,51.29
2022-11-05T11:45:43.572Z,49.65
2022-11-05T11:46:43.568Z,51.00
2022-11-05T11:48:36.746Z,49.84
2022-11-05T11:49:36.777Z,49.84
2022-11-05T11:51:40.895Z,49.37
2022-11-05T11:52:40.903Z,50.62
2022-11-05T11:54:44.978Z,49.17
2022-11-05T11:55:45.003Z,48.88
2022-11-05T11:57:49.096Z,50.06
2022-11-05T11:58:49.111Z,49.32
2022-11-05T12:00:42.271Z,47.89
2022-11-05T12:01:42.338Z,45.23
2022-11-05T12:03:35.505Z,44.12
2022-11-05T12:04:35.508Z,42.61
2022-11-05T12:06:28.592Z,40.71
2022-11-05T12:07:28.593Z,40.64
2022-11-05T12:09:21.805Z,39.26
2022-11-05T12:10:21.800Z,40.61
2022-11-05T12:12:14.969Z,42.13
2022-11-05T12:13:15.012Z,42.22
2022-11-05T12:15:19.094Z,42.47
2022-11-05T12:16:19.124Z,43.23
2022-11-05T12:18:12.315Z,44.92
2022-11-05T12:19:12.348Z,46.85
2022-11-05T12:21:05.515Z,46.90
2022-11-05T12:22:05.549Z,46.90
2022-11-05T12:23:58.758Z,48.23
2022-11-05T12:24:58.764Z,48.33
2022-11-05T12:26:51.798Z,49.58
2022-11-05T12:27:51.797Z,48.88
2022-11-05T12:29:44.971Z,49.75
2022-11-05T12:30:45.099Z,50.62
2022-11-05T12:32:38.276Z,50.90
2022-11-05T12:33:38.216Z,51.00
2022-11-05T12:35:47.003Z,51.29
2022-11-05T12:36:42.343Z,51.20
2022-11-05T12:38:35.511Z,50.42
2022-11-05T12:39:35.543Z,50.45
2022-11-05T12:41:39.677Z,49.02
2022-11-05T12:42:39.658Z,48.93
2022-11-05T12:44:32.846Z,49.41
2022-11-05T12:45:32.884Z,49.34
2022-11-05T12:47:26.081Z,47.24
2022-11-05T12:48:30.306Z,46.75
2022-11-05T12:50:19.251Z,46.49
2022-11-05T12:51:19.284Z,45.33
2022-11-05T12:53:23.401Z,44.96
2022-11-05T12:54:23.400Z,44.57
2022-11-05T12:56:27.481Z,42.76
2022-11-05T12:57:27.515Z,42.55
2022-11-05T12:59:20.683Z,43.88
2022-11-05T13:00:20.736Z,45.40
2022-11-05T13:02:24.865Z,46.61
2022-11-05T13:03:24.835Z,46.81
2022-11-05T13:05:18.084Z,48.61
2022-11-05T13:06:18.037Z,48.40
2022-11-05T13:08:11.210Z,49.43
2022-11-05T13:09:11.241Z,49.63
2022-11-05T13:11:04.422Z,50.47
2022-11-05T13:12:04.450Z,50.95
2022-11-05T13:13:57.651Z,52.49
2022-11-05T13:14:57.651Z,50.83
2022-11-05T13:16:50.646Z,51.92
2022-11-05T13:17:50.677Z,52.56
2022-11-05T13:19:43.885Z,52.47
2022-11-05T13:20:43.884Z,52.87
2022-11-05T13:22:37.062Z,52.20
2022-11-05T13:23:37.112Z,52.11
2022-11-05T13:25:41.157Z,51.07
2022-11-05T13:26:41.204Z,50.59
2022-11-05T13:28:34.358Z,49.24
2022-11-05T13:29:34.400Z,49.34
2022-11-05T13:31:27.556Z,49.60
2022-11-05T13:32:27.591Z,49.60
2022-11-05T13:34:20.758Z,51.12
2022-11-05T13:35:20.791Z,51.96
2022-11-05T13:37:13.782Z,52.06
2022-11-05T13:38:13.812Z,52.34
2022-11-05T13:40:17.905Z,52.89
2022-11-05T13:41:17.902Z,53.66
2022-11-05T13:43:21.979Z,53.76
2022-11-05T13:44:22.012Z,54.05
2022-11-05T13:46:15.188Z,54.63
2022-11-05T13:47:15.219Z,55.30
2022-11-05T13:49:08.394Z,54.05
2022-11-05T13:50:08.441Z,54.43
2022-11-05T13:52:01.654Z,52.87
2022-11-05T13:53:01.630Z,54.22
2022-11-05T13:54:54.804Z,54.50
2022-11-05T13:55:54.835Z,54.24
2022-11-05T13:57:48.010Z,51.98
2022-11-05T13:58:48.039Z,51.24
2022-11-05T14:00:41.078Z,49.43
2022-11-05T14:01:41.241Z,48.47
2022-11-05T14:03:45.161Z,47.97
2022-11-05T14:04:45.198Z,48.64
2022-11-05T14:06:38.224Z,49.94
2022-11-05T14:07:38.222Z,50.20
2022-11-05T14:09:31.435Z,51.53
2022-11-05T14:10:31.434Z,53.13
2022-11-05T14:12:35.502Z,53.20
2022-11-05T14:13:35.532Z,54.06
2022-11-05T14:15:28.712Z,54.52
2022-11-05T14:16:28.740Z,54.68
2022-11-05T14:18:21.913Z,56.70
2022-11-05T14:19:21.943Z,56.96
2022-11-05T14:21:26.056Z,57.06
2022-11-05T14:22:26.060Z,56.96
2022-11-05T14:24:19.414Z,56.57
2022-11-05T14:25:19.413Z,56.86
2022-11-05T14:27:12.400Z,56.86
2022-11-05T14:28:12.431Z,56.48
2022-11-05T14:30:16.511Z,57.92
2022-11-05T14:31:16.540Z,57.82
2022-11-05T14:33:10.133Z,58.11
2022-11-05T14:34:09.788Z,58.01
2022-11-05T14:36:03.046Z,58.20
2022-11-05T14:37:03.067Z,58.11
2022-11-05T14:39:01.382Z,58.30
2022-11-05T14:39:56.311Z,58.59
2022-11-05T14:41:49.541Z,58.94
2022-11-05T14:42:49.565Z,59.61
2022-11-05T14:44:42.836Z,59.33